Current Weather

La Porte Municipal Airport

La Porte Municipal Airport, Indiana (KPPO)

Report from: Thursday, May 19, 2022 1:35 PM CDT
Current time: Thursday, May 19, 2022 1:52 PM CDT

Nearby weather
Weather history
Weather forecast

Temperature25.3°C (77.5°F)
Dew point18.0°C (64.4°F)
Winds 13 kts (6.7 m/s, 15 mph) South-Southwest (210°)
Wind gusts 16 kts (8.2 m/s, 18.4 mph)
Visibility10 mi. (16.1 km)
Clouds Scattered clouds 3,700 ft. (1,128 m)
Altimeter29.68 in.Hg (1005 mB)
Relative humidity64 %
Density altitude1,749 ft. (533 m)
Remarks Fully automated report
Automated weather observing station with precipitation discriminator
Flight conditions Visual Meteorological Conditions
Raw dataKPPO 191835Z AUTO 21013G16KT 10SM SCT037 25/18 A2968 RMK AO2 T02530180
An error has occurred. This application may no longer respond until reloaded. Reload 🗙